sensor_id;sensor_type;location;lat;lon;timestamp;temperature;humidity
11043;DHT22;5574;48.786;10.120;2023-03-14T00:00:23;9.90;99.90
11043;DHT22;5574;48.786;10.120;2023-03-14T00:02:52;9.90;99.90
11043;DHT22;5574;48.786;10.120;2023-03-14T00:05:19;9.90;99.90
11043;DHT22;5574;48.786;10.120;2023-03-14T00:07:46;9.90;99.90
11043;DHT22;5574;48.786;10.120;2023-03-14T00:10:15;9.80;99.90
11043;DHT22;5574;48.786;10.120;2023-03-14T00:12:42;9.80;99.90
11043;DHT22;5574;48.786;10.120;2023-03-14T00:15:10;9.80;99.90
11043;DHT22;5574;48.786;10.120;2023-03-14T00:17:37;9.80;99.90
11043;DHT22;5574;48.786;10.120;2023-03-14T00:20:05;9.80;99.90
11043;DHT22;5574;48.786;10.120;2023-03-14T00:22:35;9.80;99.90
11043;DHT22;5574;48.786;10.120;2023-03-14T00:25:02;9.70;99.90
11043;DHT22;5574;48.786;10.120;2023-03-14T00:27:30;9.70;99.90
11043;DHT22;5574;48.786;10.120;2023-03-14T00:29:57;9.70;99.90
11043;DHT22;5574;48.786;10.120;2023-03-14T00:32:24;9.80;99.90
11043;DHT22;5574;48.786;10.120;2023-03-14T00:34:50;9.70;99.90
11043;DHT22;5574;48.786;10.120;2023-03-14T00:37:17;9.80;99.90
11043;DHT22;5574;48.786;10.120;2023-03-14T00:39:44;9.80;99.90
11043;DHT22;5574;48.786;10.120;2023-03-14T00:42:10;9.80;99.90
11043;DHT22;5574;48.786;10.120;2023-03-14T00:44:39;9.80;99.90
11043;DHT22;5574;48.786;10.120;2023-03-14T00:47:05;9.80;99.90
11043;DHT22;5574;48.786;10.120;2023-03-14T00:49:32;9.80;99.90
11043;DHT22;5574;48.786;10.120;2023-03-14T00:51:59;9.80;99.90
11043;DHT22;5574;48.786;10.120;2023-03-14T00:54:25;9.80;99.90
11043;DHT22;5574;48.786;10.120;2023-03-14T00:56:52;9.70;99.90
11043;DHT22;5574;48.786;10.120;2023-03-14T00:59:19;9.70;99.90
11043;DHT22;5574;48.786;10.120;2023-03-14T01:01:47;9.60;99.90
11043;DHT22;5574;48.786;10.120;2023-03-14T01:04:13;9.60;99.90
11043;DHT22;5574;48.786;10.120;2023-03-14T01:06:40;9.60;99.90
11043;DHT22;5574;48.786;10.120;2023-03-14T01:09:07;9.70;99.90
11043;DHT22;5574;48.786;10.120;2023-03-14T01:11:34;9.70;99.90
11043;DHT22;5574;48.786;10.120;2023-03-14T01:14:02;9.70;99.90
11043;DHT22;5574;48.786;10.120;2023-03-14T01:16:31;9.50;99.90
11043;DHT22;5574;48.786;10.120;2023-03-14T01:18:59;9.50;99.90
11043;DHT22;5574;48.786;10.120;2023-03-14T01:21:28;9.50;99.90
11043;DHT22;5574;48.786;10.120;2023-03-14T01:23:56;9.40;99.90
11043;DHT22;5574;48.786;10.120;2023-03-14T01:26:25;9.50;99.90
11043;DHT22;5574;48.786;10.120;2023-03-14T01:28:54;9.40;99.90
11043;DHT22;5574;48.786;10.120;2023-03-14T01:31:21;9.40;99.90
11043;DHT22;5574;48.786;10.120;2023-03-14T01:33:48;9.40;99.90
11043;DHT22;5574;48.786;10.120;2023-03-14T01:36:16;9.40;99.90
11043;DHT22;5574;48.786;10.120;2023-03-14T01:38:43;9.40;99.90
11043;DHT22;5574;48.786;10.120;2023-03-14T01:41:13;9.40;99.90
11043;DHT22;5574;48.786;10.120;2023-03-14T01:43:40;9.40;99.90
11043;DHT22;5574;48.786;10.120;2023-03-14T01:46:26;9.40;99.90
11043;DHT22;5574;48.786;10.120;2023-03-14T01:48:59;9.40;99.90
11043;DHT22;5574;48.786;10.120;2023-03-14T01:51:31;9.30;99.90
11043;DHT22;5574;48.786;10.120;2023-03-14T01:54:06;9.30;99.90
11043;DHT22;5574;48.786;10.120;2023-03-14T01:56:35;9.30;99.90
11043;DHT22;5574;48.786;10.120;2023-03-14T01:59:04;9.30;99.90
11043;DHT22;5574;48.786;10.120;2023-03-14T02:01:33;9.30;99.90
11043;DHT22;5574;48.786;10.120;2023-03-14T02:04:02;9.30;99.90
11043;DHT22;5574;48.786;10.120;2023-03-14T02:06:37;9.30;99.90
11043;DHT22;5574;48.786;10.120;2023-03-14T02:09:05;9.30;99.90
11043;DHT22;5574;48.786;10.120;2023-03-14T02:11:32;9.40;99.90
11043;DHT22;5574;48.786;10.120;2023-03-14T02:13:59;9.40;99.90
11043;DHT22;5574;48.786;10.120;2023-03-14T02:16:27;9.40;99.90
11043;DHT22;5574;48.786;10.120;2023-03-14T02:18:54;9.40;99.90
11043;DHT22;5574;48.786;10.120;2023-03-14T02:21:24;9.40;99.90
11043;DHT22;5574;48.786;10.120;2023-03-14T02:24:04;9.30;99.90
11043;DHT22;5574;48.786;10.120;2023-03-14T02:26:38;9.30;99.90
11043;DHT22;5574;48.786;10.120;2023-03-14T02:29:06;9.30;99.90
11043;DHT22;5574;48.786;10.120;2023-03-14T02:31:33;9.30;99.90
11043;DHT22;5574;48.786;10.120;2023-03-14T02:34:01;9.30;99.90
11043;DHT22;5574;48.786;10.120;2023-03-14T02:36:28;9.30;99.90
11043;DHT22;5574;48.786;10.120;2023-03-14T02:39:03;9.30;99.90
11043;DHT22;5574;48.786;10.120;2023-03-14T02:41:33;9.30;99.90
11043;DHT22;5574;48.786;10.120;2023-03-14T02:44:00;9.30;99.90
11043;DHT22;5574;48.786;10.120;2023-03-14T02:46:28;9.30;99.90
11043;DHT22;5574;48.786;10.120;2023-03-14T02:48:56;9.20;99.90
11043;DHT22;5574;48.786;10.120;2023-03-14T02:51:26;9.30;99.90
11043;DHT22;5574;48.786;10.120;2023-03-14T02:53:53;9.30;99.90
11043;DHT22;5574;48.786;10.120;2023-03-14T02:56:20;9.30;99.90
11043;DHT22;5574;48.786;10.120;2023-03-14T02:58:47;9.30;99.90
11043;DHT22;5574;48.786;10.120;2023-03-14T03:01:14;9.30;99.90
11043;DHT22;5574;48.786;10.120;2023-03-14T03:03:42;9.30;99.90
11043;DHT22;5574;48.786;10.120;2023-03-14T03:06:08;9.30;99.90
11043;DHT22;5574;48.786;10.120;2023-03-14T03:08:35;9.40;99.90
11043;DHT22;5574;48.786;10.120;2023-03-14T03:11:02;9.30;99.90
11043;DHT22;5574;48.786;10.120;2023-03-14T03:13:29;9.40;99.90
11043;DHT22;5574;48.786;10.120;2023-03-14T03:15:56;9.40;99.90
11043;DHT22;5574;48.786;10.120;2023-03-14T03:18:22;9.40;99.90
11043;DHT22;5574;48.786;10.120;2023-03-14T03:20:50;9.40;99.90
11043;DHT22;5574;48.786;10.120;2023-03-14T03:23:17;9.40;99.90
11043;DHT22;5574;48.786;10.120;2023-03-14T03:25:48;9.40;99.90
11043;DHT22;5574;48.786;10.120;2023-03-14T03:28:15;9.40;99.90
11043;DHT22;5574;48.786;10.120;2023-03-14T03:30:42;9.40;99.90
11043;DHT22;5574;48.786;10.120;2023-03-14T03:33:09;9.40;99.90
11043;DHT22;5574;48.786;10.120;2023-03-14T03:35:42;9.40;99.90
11043;DHT22;5574;48.786;10.120;2023-03-14T03:38:10;9.40;99.90
11043;DHT22;5574;48.786;10.120;2023-03-14T03:40:37;9.40;99.90
11043;DHT22;5574;48.786;10.120;2023-03-14T03:43:04;9.40;99.90
11043;DHT22;5574;48.786;10.120;2023-03-14T03:45:30;9.40;99.90
11043;DHT22;5574;48.786;10.120;2023-03-14T03:47:57;9.40;99.90
11043;DHT22;5574;48.786;10.120;2023-03-14T03:50:24;9.40;99.90
11043;DHT22;5574;48.786;10.120;2023-03-14T03:52:50;9.40;99.90
11043;DHT22;5574;48.786;10.120;2023-03-14T03:55:18;9.40;99.90
11043;DHT22;5574;48.786;10.120;2023-03-14T03:57:45;9.30;99.90
11043;DHT22;5574;48.786;10.120;2023-03-14T04:00:12;9.40;99.90
11043;DHT22;5574;48.786;10.120;2023-03-14T04:02:39;9.30;99.90
11043;DHT22;5574;48.786;10.120;2023-03-14T04:05:06;9.40;99.90
11043;DHT22;5574;48.786;10.120;2023-03-14T04:07:33;9.40;99.90
11043;DHT22;5574;48.786;10.120;2023-03-14T04:10:00;9.40;99.90
11043;DHT22;5574;48.786;10.120;2023-03-14T04:12:28;9.40;99.90
11043;DHT22;5574;48.786;10.120;2023-03-14T04:14:54;9.40;99.90
11043;DHT22;5574;48.786;10.120;2023-03-14T04:17:21;9.40;99.90
11043;DHT22;5574;48.786;10.120;2023-03-14T04:19:48;9.30;99.90
11043;DHT22;5574;48.786;10.120;2023-03-14T04:22:16;9.30;99.90
11043;DHT22;5574;48.786;10.120;2023-03-14T04:24:43;9.20;99.90
11043;DHT22;5574;48.786;10.120;2023-03-14T04:27:09;9.20;99.90
11043;DHT22;5574;48.786;10.120;2023-03-14T04:29:37;9.20;99.90
11043;DHT22;5574;48.786;10.120;2023-03-14T04:32:04;9.10;99.90
11043;DHT22;5574;48.786;10.120;2023-03-14T04:34:31;9.10;99.90
11043;DHT22;5574;48.786;10.120;2023-03-14T04:36:58;9.10;99.90
11043;DHT22;5574;48.786;10.120;2023-03-14T04:39:24;9.10;99.90
11043;DHT22;5574;48.786;10.120;2023-03-14T04:41:51;9.10;99.90
11043;DHT22;5574;48.786;10.120;2023-03-14T04:44:18;9.00;99.90
11043;DHT22;5574;48.786;10.120;2023-03-14T04:46:46;9.00;99.90
11043;DHT22;5574;48.786;10.120;2023-03-14T04:49:13;9.00;99.90
11043;DHT22;5574;48.786;10.120;2023-03-14T04:51:39;8.90;99.90
11043;DHT22;5574;48.786;10.120;2023-03-14T04:54:07;8.90;99.90
11043;DHT22;5574;48.786;10.120;2023-03-14T04:56:33;8.80;99.90
11043;DHT22;5574;48.786;10.120;2023-03-14T04:59:00;8.70;99.90
11043;DHT22;5574;48.786;10.120;2023-03-14T05:01:27;8.60;99.90
11043;DHT22;5574;48.786;10.120;2023-03-14T05:03:54;8.60;99.90
11043;DHT22;5574;48.786;10.120;2023-03-14T05:06:21;8.60;99.90
11043;DHT22;5574;48.786;10.120;2023-03-14T05:08:48;8.50;99.90
11043;DHT22;5574;48.786;10.120;2023-03-14T05:11:14;8.60;99.90
11043;DHT22;5574;48.786;10.120;2023-03-14T05:13:41;8.60;99.90
11043;DHT22;5574;48.786;10.120;2023-03-14T05:16:09;8.50;99.90
11043;DHT22;5574;48.786;10.120;2023-03-14T05:18:37;8.50;99.90
11043;DHT22;5574;48.786;10.120;2023-03-14T05:21:05;8.50;99.90
11043;DHT22;5574;48.786;10.120;2023-03-14T05:23:32;8.50;99.90
11043;DHT22;5574;48.786;10.120;2023-03-14T05:25:59;8.40;99.90
11043;DHT22;5574;48.786;10.120;2023-03-14T05:28:25;8.30;99.90
11043;DHT22;5574;48.786;10.120;2023-03-14T05:30:52;8.40;99.90
11043;DHT22;5574;48.786;10.120;2023-03-14T05:33:19;8.30;99.90
11043;DHT22;5574;48.786;10.120;2023-03-14T05:35:45;8.40;99.90
11043;DHT22;5574;48.786;10.120;2023-03-14T05:38:14;8.40;99.90
11043;DHT22;5574;48.786;10.120;2023-03-14T05:40:40;8.40;99.90
11043;DHT22;5574;48.786;10.120;2023-03-14T05:43:07;8.30;99.90
11043;DHT22;5574;48.786;10.120;2023-03-14T05:45:34;8.30;99.90
11043;DHT22;5574;48.786;10.120;2023-03-14T05:48:01;8.30;99.90
11043;DHT22;5574;48.786;10.120;2023-03-14T05:50:28;8.30;99.90
11043;DHT22;5574;48.786;10.120;2023-03-14T05:52:54;8.30;99.90
11043;DHT22;5574;48.786;10.120;2023-03-14T05:55:22;8.20;99.90
11043;DHT22;5574;48.786;10.120;2023-03-14T05:57:49;8.20;99.90
11043;DHT22;5574;48.786;10.120;2023-03-14T06:00:17;8.20;99.90
11043;DHT22;5574;48.786;10.120;2023-03-14T06:02:43;8.20;99.90
11043;DHT22;5574;48.786;10.120;2023-03-14T06:05:10;8.30;99.90
11043;DHT22;5574;48.786;10.120;2023-03-14T06:07:37;8.20;99.90
11043;DHT22;5574;48.786;10.120;2023-03-14T06:10:04;8.30;99.90
11043;DHT22;5574;48.786;10.120;2023-03-14T06:12:32;8.30;99.90
11043;DHT22;5574;48.786;10.120;2023-03-14T06:14:59;8.20;99.90
11043;DHT22;5574;48.786;10.120;2023-03-14T06:17:26;8.30;99.90
11043;DHT22;5574;48.786;10.120;2023-03-14T06:19:52;8.30;99.90
11043;DHT22;5574;48.786;10.120;2023-03-14T06:22:19;8.30;99.90
11043;DHT22;5574;48.786;10.120;2023-03-14T06:24:46;8.20;99.90
11043;DHT22;5574;48.786;10.120;2023-03-14T06:27:12;8.20;99.90
11043;DHT22;5574;48.786;10.120;2023-03-14T06:29:40;8.30;99.90
11043;DHT22;5574;48.786;10.120;2023-03-14T06:32:07;8.30;99.90
11043;DHT22;5574;48.786;10.120;2023-03-14T06:34:34;8.30;99.90
11043;DHT22;5574;48.786;10.120;2023-03-14T06:37:01;8.30;99.90
11043;DHT22;5574;48.786;10.120;2023-03-14T06:39:27;8.30;99.90
11043;DHT22;5574;48.786;10.120;2023-03-14T06:41:54;8.30;99.90
11043;DHT22;5574;48.786;10.120;2023-03-14T06:44:21;8.40;99.90
11043;DHT22;5574;48.786;10.120;2023-03-14T06:46:49;8.30;99.90
11043;DHT22;5574;48.786;10.120;2023-03-14T06:49:15;8.40;99.90
11043;DHT22;5574;48.786;10.120;2023-03-14T06:51:42;8.30;99.90
11043;DHT22;5574;48.786;10.120;2023-03-14T06:54:09;8.40;99.90
11043;DHT22;5574;48.786;10.120;2023-03-14T06:56:35;8.40;99.90
11043;DHT22;5574;48.786;10.120;2023-03-14T06:59:02;8.50;99.90
11043;DHT22;5574;48.786;10.120;2023-03-14T07:01:30;8.50;99.90
11043;DHT22;5574;48.786;10.120;2023-03-14T07:03:59;8.50;99.90
11043;DHT22;5574;48.786;10.120;2023-03-14T07:06:25;8.60;99.90
11043;DHT22;5574;48.786;10.120;2023-03-14T07:08:58;8.60;99.90
11043;DHT22;5574;48.786;10.120;2023-03-14T07:11:25;8.70;99.90
11043;DHT22;5574;48.786;10.120;2023-03-14T07:13:52;8.80;99.90
11043;DHT22;5574;48.786;10.120;2023-03-14T07:16:18;8.80;99.90
11043;DHT22;5574;48.786;10.120;2023-03-14T07:18:45;8.90;99.90
11043;DHT22;5574;48.786;10.120;2023-03-14T07:21:13;9.00;99.90
11043;DHT22;5574;48.786;10.120;2023-03-14T07:23:40;9.00;99.90
11043;DHT22;5574;48.786;10.120;2023-03-14T07:26:06;9.10;99.90
11043;DHT22;5574;48.786;10.120;2023-03-14T07:28:33;9.20;99.90
11043;DHT22;5574;48.786;10.120;2023-03-14T07:31:00;9.30;99.90
11043;DHT22;5574;48.786;10.120;2023-03-14T07:33:26;9.40;99.90
11043;DHT22;5574;48.786;10.120;2023-03-14T07:35:53;9.40;99.90
11043;DHT22;5574;48.786;10.120;2023-03-14T07:38:21;9.40;99.90
11043;DHT22;5574;48.786;10.120;2023-03-14T07:40:48;9.40;99.90
11043;DHT22;5574;48.786;10.120;2023-03-14T07:43:14;9.40;99.90
11043;DHT22;5574;48.786;10.120;2023-03-14T07:45:44;9.60;99.90
11043;DHT22;5574;48.786;10.120;2023-03-14T07:48:11;9.70;99.90
11043;DHT22;5574;48.786;10.120;2023-03-14T07:50:38;9.70;99.90
11043;DHT22;5574;48.786;10.120;2023-03-14T07:53:04;9.80;99.90
11043;DHT22;5574;48.786;10.120;2023-03-14T07:55:32;9.80;99.90
11043;DHT22;5574;48.786;10.120;2023-03-14T07:57:59;10.10;99.90
11043;DHT22;5574;48.786;10.120;2023-03-14T08:00:26;10.10;99.90
11043;DHT22;5574;48.786;10.120;2023-03-14T08:02:53;10.30;99.90
11043;DHT22;5574;48.786;10.120;2023-03-14T08:05:19;10.30;99.90
11043;DHT22;5574;48.786;10.120;2023-03-14T08:07:46;10.40;99.90
11043;DHT22;5574;48.786;10.120;2023-03-14T08:10:13;10.50;99.90
11043;DHT22;5574;48.786;10.120;2023-03-14T08:12:48;10.60;99.90
11043;DHT22;5574;48.786;10.120;2023-03-14T08:15:15;10.60;99.90
11043;DHT22;5574;48.786;10.120;2023-03-14T08:17:42;10.50;99.90
11043;DHT22;5574;48.786;10.120;2023-03-14T08:20:10;10.60;99.90
11043;DHT22;5574;48.786;10.120;2023-03-14T08:22:38;10.70;99.90
11043;DHT22;5574;48.786;10.120;2023-03-14T08:25:05;10.80;99.90
11043;DHT22;5574;48.786;10.120;2023-03-14T08:27:32;10.80;99.90
11043;DHT22;5574;48.786;10.120;2023-03-14T08:30:00;11.00;99.90
11043;DHT22;5574;48.786;10.120;2023-03-14T08:32:27;11.10;99.90
11043;DHT22;5574;48.786;10.120;2023-03-14T08:34:54;11.10;99.90
11043;DHT22;5574;48.786;10.120;2023-03-14T08:37:21;11.10;99.90
11043;DHT22;5574;48.786;10.120;2023-03-14T08:39:47;11.30;99.90
11043;DHT22;5574;48.786;10.120;2023-03-14T08:42:14;11.30;99.90
11043;DHT22;5574;48.786;10.120;2023-03-14T08:44:41;11.40;99.90
11043;DHT22;5574;48.786;10.120;2023-03-14T08:47:09;11.30;99.90
11043;DHT22;5574;48.786;10.120;2023-03-14T08:49:36;11.40;99.90
11043;DHT22;5574;48.786;10.120;2023-03-14T08:52:03;11.40;99.90
11043;DHT22;5574;48.786;10.120;2023-03-14T08:54:30;11.50;99.90
11043;DHT22;5574;48.786;10.120;2023-03-14T08:56:57;11.70;99.90
11043;DHT22;5574;48.786;10.120;2023-03-14T08:59:24;11.70;99.90
11043;DHT22;5574;48.786;10.120;2023-03-14T09:01:50;11.60;99.90
11043;DHT22;5574;48.786;10.120;2023-03-14T09:04:18;11.60;99.90
11043;DHT22;5574;48.786;10.120;2023-03-14T09:06:45;11.60;99.90
11043;DHT22;5574;48.786;10.120;2023-03-14T09:09:12;11.60;99.90
11043;DHT22;5574;48.786;10.120;2023-03-14T09:11:39;11.60;99.90
11043;DHT22;5574;48.786;10.120;2023-03-14T09:14:06;11.70;99.90
11043;DHT22;5574;48.786;10.120;2023-03-14T09:16:33;11.80;99.90
11043;DHT22;5574;48.786;10.120;2023-03-14T09:19:00;11.80;99.90
11043;DHT22;5574;48.786;10.120;2023-03-14T09:21:28;11.80;99.90
11043;DHT22;5574;48.786;10.120;2023-03-14T09:23:55;11.80;99.90
11043;DHT22;5574;48.786;10.120;2023-03-14T09:26:21;11.80;99.90
11043;DHT22;5574;48.786;10.120;2023-03-14T09:28:48;11.90;99.90
11043;DHT22;5574;48.786;10.120;2023-03-14T09:31:15;11.90;99.90
11043;DHT22;5574;48.786;10.120;2023-03-14T09:33:42;11.80;99.90
11043;DHT22;5574;48.786;10.120;2023-03-14T09:36:10;11.90;99.90
11043;DHT22;5574;48.786;10.120;2023-03-14T09:38:38;11.90;99.90
11043;DHT22;5574;48.786;10.120;2023-03-14T09:41:13;11.90;99.90
11043;DHT22;5574;48.786;10.120;2023-03-14T09:43:42;11.90;99.90
11043;DHT22;5574;48.786;10.120;2023-03-14T09:46:10;12.00;99.90
11043;DHT22;5574;48.786;10.120;2023-03-14T09:48:37;12.10;99.90
11043;DHT22;5574;48.786;10.120;2023-03-14T09:51:07;12.20;99.90
11043;DHT22;5574;48.786;10.120;2023-03-14T09:53:39;12.40;99.90
11043;DHT22;5574;48.786;10.120;2023-03-14T09:56:10;12.60;99.90
11043;DHT22;5574;48.786;10.120;2023-03-14T09:58:40;12.80;99.90
11043;DHT22;5574;48.786;10.120;2023-03-14T10:01:11;13.00;99.90
11043;DHT22;5574;48.786;10.120;2023-03-14T10:03:40;12.90;99.90
11043;DHT22;5574;48.786;10.120;2023-03-14T10:06:11;12.60;99.90
11043;DHT22;5574;48.786;10.120;2023-03-14T10:08:41;12.60;99.90
11043;DHT22;5574;48.786;10.120;2023-03-14T10:11:15;12.60;99.90
11043;DHT22;5574;48.786;10.120;2023-03-14T10:13:50;12.60;99.90
11043;DHT22;5574;48.786;10.120;2023-03-14T10:16:17;12.60;99.90
11043;DHT22;5574;48.786;10.120;2023-03-14T10:18:45;12.50;99.90
11043;DHT22;5574;48.786;10.120;2023-03-14T10:21:21;12.50;99.90
11043;DHT22;5574;48.786;10.120;2023-03-14T10:23:51;12.60;99.90
11043;DHT22;5574;48.786;10.120;2023-03-14T10:26:23;12.90;99.90
11043;DHT22;5574;48.786;10.120;2023-03-14T10:28:52;13.00;99.90
11043;DHT22;5574;48.786;10.120;2023-03-14T10:31:24;13.40;99.90
11043;DHT22;5574;48.786;10.120;2023-03-14T10:33:59;13.40;99.90
11043;DHT22;5574;48.786;10.120;2023-03-14T10:36:28;13.50;99.90
11043;DHT22;5574;48.786;10.120;2023-03-14T10:39:18;13.30;99.90
11043;DHT22;5574;48.786;10.120;2023-03-14T10:41:50;13.20;99.90
11043;DHT22;5574;48.786;10.120;2023-03-14T10:44:21;13.00;99.90
11043;DHT22;5574;48.786;10.120;2023-03-14T10:46:55;13.20;99.90
11043;DHT22;5574;48.786;10.120;2023-03-14T10:49:27;13.20;99.90
11043;DHT22;5574;48.786;10.120;2023-03-14T10:51:53;13.00;99.90
11043;DHT22;5574;48.786;10.120;2023-03-14T10:54:23;12.90;99.90
11043;DHT22;5574;48.786;10.120;2023-03-14T10:56:57;12.80;99.90
11043;DHT22;5574;48.786;10.120;2023-03-14T10:59:24;13.10;99.90
11043;DHT22;5574;48.786;10.120;2023-03-14T11:01:57;13.10;99.90
11043;DHT22;5574;48.786;10.120;2023-03-14T11:04:42;13.40;99.90
11043;DHT22;5574;48.786;10.120;2023-03-14T11:07:15;13.80;99.90
11043;DHT22;5574;48.786;10.120;2023-03-14T11:09:50;13.90;99.90
11043;DHT22;5574;48.786;10.120;2023-03-14T11:12:36;14.00;99.90
11043;DHT22;5574;48.786;10.120;2023-03-14T11:15:11;14.20;99.90
11043;DHT22;5574;48.786;10.120;2023-03-14T11:17:48;14.20;99.90
11043;DHT22;5574;48.786;10.120;2023-03-14T11:20:28;14.30;99.90
11043;DHT22;5574;48.786;10.120;2023-03-14T11:23:01;14.40;99.90
11043;DHT22;5574;48.786;10.120;2023-03-14T11:25:34;14.30;99.90
11043;DHT22;5574;48.786;10.120;2023-03-14T11:28:09;14.30;99.90
11043;DHT22;5574;48.786;10.120;2023-03-14T11:30:45;14.30;99.90
11043;DHT22;5574;48.786;10.120;2023-03-14T11:33:16;14.40;99.90
11043;DHT22;5574;48.786;10.120;2023-03-14T11:35:47;14.40;99.90
11043;DHT22;5574;48.786;10.120;2023-03-14T11:38:28;14.30;99.90
11043;DHT22;5574;48.786;10.120;2023-03-14T11:40:58;14.00;99.90
11043;DHT22;5574;48.786;10.120;2023-03-14T11:43:29;13.90;99.90
11043;DHT22;5574;48.786;10.120;2023-03-14T11:46:01;13.70;99.90
11043;DHT22;5574;48.786;10.120;2023-03-14T11:48:36;13.70;99.90
11043;DHT22;5574;48.786;10.120;2023-03-14T11:51:10;13.60;99.90
11043;DHT22;5574;48.786;10.120;2023-03-14T11:53:50;13.40;99.90
11043;DHT22;5574;48.786;10.120;2023-03-14T11:56:27;13.20;99.90
11043;DHT22;5574;48.786;10.120;2023-03-14T11:58:58;12.90;99.90
11043;DHT22;5574;48.786;10.120;2023-03-14T12:01:33;12.60;99.90
11043;DHT22;5574;48.786;10.120;2023-03-14T12:04:07;12.50;99.90
11043;DHT22;5574;48.786;10.120;2023-03-14T12:06:38;12.40;99.90
11043;DHT22;5574;48.786;10.120;2023-03-14T12:09:08;12.20;99.90
11043;DHT22;5574;48.786;10.120;2023-03-14T12:11:40;11.90;99.90
11043;DHT22;5574;48.786;10.120;2023-03-14T12:14:21;11.80;99.90
11043;DHT22;5574;48.786;10.120;2023-03-14T12:16:49;11.70;99.90
11043;DHT22;5574;48.786;10.120;2023-03-14T12:19:28;11.60;99.90
11043;DHT22;5574;48.786;10.120;2023-03-14T12:22:01;11.50;99.90
11043;DHT22;5574;48.786;10.120;2023-03-14T12:24:34;11.50;99.90
11043;DHT22;5574;48.786;10.120;2023-03-14T12:27:05;11.40;99.90
11043;DHT22;5574;48.786;10.120;2023-03-14T12:29:57;11.20;99.90
11043;DHT22;5574;48.786;10.120;2023-03-14T12:32:25;11.20;99.90
11043;DHT22;5574;48.786;10.120;2023-03-14T12:34:52;11.00;99.90
11043;DHT22;5574;48.786;10.120;2023-03-14T12:37:37;10.90;99.90
11043;DHT22;5574;48.786;10.120;2023-03-14T12:40:17;10.80;99.90
11043;DHT22;5574;48.786;10.120;2023-03-14T12:42:57;10.80;99.90
11043;DHT22;5574;48.786;10.120;2023-03-14T12:45:27;10.70;99.90
11043;DHT22;5574;48.786;10.120;2023-03-14T12:48:00;10.50;99.90
11043;DHT22;5574;48.786;10.120;2023-03-14T12:50:36;10.50;99.90
11043;DHT22;5574;48.786;10.120;2023-03-14T12:53:22;10.30;99.90
11043;DHT22;5574;48.786;10.120;2023-03-14T12:55:58;10.30;99.90
11043;DHT22;5574;48.786;10.120;2023-03-14T12:58:32;10.30;99.90
11043;DHT22;5574;48.786;10.120;2023-03-14T13:01:01;10.20;99.90
11043;DHT22;5574;48.786;10.120;2023-03-14T13:03:38;10.10;99.90
11043;DHT22;5574;48.786;10.120;2023-03-14T13:06:08;10.00;99.90
11043;DHT22;5574;48.786;10.120;2023-03-14T13:08:38;10.00;99.90
11043;DHT22;5574;48.786;10.120;2023-03-14T13:11:10;9.90;99.90
11043;DHT22;5574;48.786;10.120;2023-03-14T13:13:45;9.90;99.90
11043;DHT22;5574;48.786;10.120;2023-03-14T13:16:16;9.90;99.90
11043;DHT22;5574;48.786;10.120;2023-03-14T13:18:44;9.70;99.90
11043;DHT22;5574;48.786;10.120;2023-03-14T13:21:14;9.80;99.90
11043;DHT22;5574;48.786;10.120;2023-03-14T13:23:55;9.80;99.90
11043;DHT22;5574;48.786;10.120;2023-03-14T13:26:24;9.80;99.90
11043;DHT22;5574;48.786;10.120;2023-03-14T13:28:53;9.80;99.90
11043;DHT22;5574;48.786;10.120;2023-03-14T13:31:22;9.80;99.90
11043;DHT22;5574;48.786;10.120;2023-03-14T13:33:59;9.80;99.90
11043;DHT22;5574;48.786;10.120;2023-03-14T13:36:26;9.90;99.90
11043;DHT22;5574;48.786;10.120;2023-03-14T13:38:57;10.00;99.90
11043;DHT22;5574;48.786;10.120;2023-03-14T13:41:25;10.10;99.90
11043;DHT22;5574;48.786;10.120;2023-03-14T13:43:59;10.20;99.90
11043;DHT22;5574;48.786;10.120;2023-03-14T13:46:29;10.20;99.90
11043;DHT22;5574;48.786;10.120;2023-03-14T13:48:58;10.20;99.90
11043;DHT22;5574;48.786;10.120;2023-03-14T13:51:27;10.00;99.90
11043;DHT22;5574;48.786;10.120;2023-03-14T13:53:57;9.80;99.90
11043;DHT22;5574;48.786;10.120;2023-03-14T13:56:26;9.90;99.90
11043;DHT22;5574;48.786;10.120;2023-03-14T13:58:55;9.90;99.90
11043;DHT22;5574;48.786;10.120;2023-03-14T14:01:23;10.10;99.90
11043;DHT22;5574;48.786;10.120;2023-03-14T14:03:53;10.20;99.90
11043;DHT22;5574;48.786;10.120;2023-03-14T14:06:28;10.20;99.90
11043;DHT22;5574;48.786;10.120;2023-03-14T14:08:55;10.20;99.90
11043;DHT22;5574;48.786;10.120;2023-03-14T14:11:41;10.20;99.90
11043;DHT22;5574;48.786;10.120;2023-03-14T14:14:13;10.10;99.90
11043;DHT22;5574;48.786;10.120;2023-03-14T14:16:43;10.00;99.90
11043;DHT22;5574;48.786;10.120;2023-03-14T14:19:11;9.90;99.90
11043;DHT22;5574;48.786;10.120;2023-03-14T14:21:38;9.90;99.90
11043;DHT22;5574;48.786;10.120;2023-03-14T14:24:05;10.00;99.90
11043;DHT22;5574;48.786;10.120;2023-03-14T14:26:32;10.00;99.90
11043;DHT22;5574;48.786;10.120;2023-03-14T14:29:02;9.80;99.90
11043;DHT22;5574;48.786;10.120;2023-03-14T14:31:30;9.80;99.90
11043;DHT22;5574;48.786;10.120;2023-03-14T14:33:58;9.80;99.90
11043;DHT22;5574;48.786;10.120;2023-03-14T14:36:27;9.70;99.90
11043;DHT22;5574;48.786;10.120;2023-03-14T14:38:59;9.70;99.90
11043;DHT22;5574;48.786;10.120;2023-03-14T14:41:30;9.70;99.90
11043;DHT22;5574;48.786;10.120;2023-03-14T14:43:57;9.80;99.90
11043;DHT22;5574;48.786;10.120;2023-03-14T14:46:28;9.80;99.90
11043;DHT22;5574;48.786;10.120;2023-03-14T14:49:02;9.80;99.90
11043;DHT22;5574;48.786;10.120;2023-03-14T14:51:34;9.70;99.90
11043;DHT22;5574;48.786;10.120;2023-03-14T14:54:13;9.60;99.90
11043;DHT22;5574;48.786;10.120;2023-03-14T14:56:40;9.50;99.90
11043;DHT22;5574;48.786;10.120;2023-03-14T14:59:20;9.40;99.90
11043;DHT22;5574;48.786;10.120;2023-03-14T15:01:47;9.30;98.50
11043;DHT22;5574;48.786;10.120;2023-03-14T15:04:17;9.20;99.00
11043;DHT22;5574;48.786;10.120;2023-03-14T15:06:46;9.10;98.40
11043;DHT22;5574;48.786;10.120;2023-03-14T15:09:15;9.00;98.10
11043;DHT22;5574;48.786;10.120;2023-03-14T15:11:43;8.90;98.70
11043;DHT22;5574;48.786;10.120;2023-03-14T15:14:10;8.90;97.90
11043;DHT22;5574;48.786;10.120;2023-03-14T15:16:36;8.90;98.10
11043;DHT22;5574;48.786;10.120;2023-03-14T15:19:19;8.80;96.70
11043;DHT22;5574;48.786;10.120;2023-03-14T15:21:47;8.80;96.90
11043;DHT22;5574;48.786;10.120;2023-03-14T15:24:14;8.80;96.70
11043;DHT22;5574;48.786;10.120;2023-03-14T15:26:40;8.80;96.60
11043;DHT22;5574;48.786;10.120;2023-03-14T15:29:09;8.70;96.40
11043;DHT22;5574;48.786;10.120;2023-03-14T15:31:37;8.70;96.00
11043;DHT22;5574;48.786;10.120;2023-03-14T15:34:04;8.60;95.50
11043;DHT22;5574;48.786;10.120;2023-03-14T15:36:33;8.60;95.70
11043;DHT22;5574;48.786;10.120;2023-03-14T15:39:04;8.70;95.70
11043;DHT22;5574;48.786;10.120;2023-03-14T15:41:31;8.70;95.60
11043;DHT22;5574;48.786;10.120;2023-03-14T15:43:57;8.70;95.10
11043;DHT22;5574;48.786;10.120;2023-03-14T15:46:24;8.70;95.70
11043;DHT22;5574;48.786;10.120;2023-03-14T15:48:51;8.70;95.50
11043;DHT22;5574;48.786;10.120;2023-03-14T15:51:18;8.60;94.40